createdAt,value
2018-05-13T00:00:34.936Z,16.90
2018-05-13T00:03:03.419Z,16.80
2018-05-13T00:05:31.094Z,16.80
2018-05-13T00:07:59.558Z,16.80
2018-05-13T00:10:27.227Z,16.70
2018-05-13T00:12:56.264Z,16.70
2018-05-13T00:15:23.996Z,16.70
2018-05-13T00:17:52.440Z,16.70
2018-05-13T00:20:20.152Z,16.60
2018-05-13T00:22:47.810Z,16.60
2018-05-13T00:25:15.524Z,16.60
2018-05-13T00:27:43.191Z,16.60
2018-05-13T00:30:10.913Z,16.50
2018-05-13T00:32:38.573Z,16.50
2018-05-13T00:35:06.263Z,16.50
2018-05-13T00:37:33.925Z,16.50
2018-05-13T00:40:01.623Z,16.40
2018-05-13T00:42:30.051Z,16.40
2018-05-13T00:44:57.747Z,16.40
2018-05-13T00:47:26.224Z,16.40
2018-05-13T00:49:53.999Z,16.30
2018-05-13T00:52:21.696Z,16.30
2018-05-13T00:54:55.224Z,16.30
2018-05-13T00:57:22.936Z,16.30
2018-05-13T00:59:51.411Z,16.20
2018-05-13T01:02:19.851Z,16.20
2018-05-13T01:04:47.552Z,16.20
2018-05-13T01:07:15.259Z,16.20
2018-05-13T01:09:42.927Z,16.20
2018-05-13T01:12:10.629Z,16.20
2018-05-13T01:14:38.303Z,16.10
2018-05-13T01:17:06.770Z,16.10
2018-05-13T01:19:34.447Z,16.10
2018-05-13T01:22:02.933Z,16.10
2018-05-13T01:24:31.373Z,16.00
2018-05-13T01:26:59.089Z,16.10
2018-05-13T01:29:27.515Z,16.10
2018-05-13T01:31:55.211Z,16.00
2018-05-13T01:34:22.875Z,16.00
2018-05-13T01:36:51.304Z,15.90
2018-05-13T01:39:19.017Z,15.90
2018-05-13T01:41:47.462Z,15.90
2018-05-13T01:44:15.162Z,15.90
2018-05-13T01:46:43.599Z,15.90
2018-05-13T01:49:11.323Z,15.90
2018-05-13T01:51:39.011Z,15.90
2018-05-13T01:54:06.717Z,15.80
2018-05-13T01:56:34.387Z,15.90
2018-05-13T01:59:02.860Z,15.80
2018-05-13T02:01:30.532Z,15.80
2018-05-13T02:03:59.012Z,15.70
2018-05-13T02:06:27.451Z,15.80
2018-05-13T02:08:55.165Z,15.70
2018-05-13T02:11:23.595Z,15.70
2018-05-13T02:13:51.267Z,15.70
2018-05-13T02:16:18.969Z,15.70
2018-05-13T02:18:47.444Z,15.60
2018-05-13T02:21:15.883Z,15.70
2018-05-13T02:23:43.583Z,15.60
2018-05-13T02:26:12.056Z,15.60
2018-05-13T02:28:40.491Z,15.60
2018-05-13T02:31:08.199Z,15.60
2018-05-13T02:33:35.867Z,15.60
2018-05-13T02:36:04.347Z,15.50
2018-05-13T02:38:32.777Z,15.50
2018-05-13T02:41:00.496Z,15.50
2018-05-13T02:43:28.928Z,15.50
2018-05-13T02:45:56.646Z,15.50
2018-05-13T02:48:25.072Z,15.50
2018-05-13T02:50:52.733Z,15.50
2018-05-13T02:53:20.434Z,15.40
2018-05-13T02:55:48.107Z,15.40
2018-05-13T02:58:16.576Z,15.40
2018-05-13T03:00:45.022Z,15.30
2018-05-13T03:03:12.736Z,15.30
2018-05-13T03:05:41.160Z,15.20
2018-05-13T03:08:08.822Z,15.30
2018-05-13T03:10:36.527Z,15.30
2018-05-13T03:13:04.951Z,15.20
2018-05-13T03:15:32.674Z,15.10
2018-05-13T03:18:01.106Z,15.10
2018-05-13T03:20:28.803Z,15.10
2018-05-13T03:22:56.472Z,15.10
2018-05-13T03:25:25.976Z,15.10
2018-05-13T03:27:55.527Z,15.10
2018-05-13T03:30:23.244Z,15.10
2018-05-13T03:32:51.686Z,15.00
2018-05-13T03:35:19.388Z,15.00
2018-05-13T03:37:47.833Z,15.10
2018-05-13T03:40:15.536Z,15.10
2018-05-13T03:42:43.191Z,15.10
2018-05-13T03:45:11.675Z,15.00
2018-05-13T03:47:40.098Z,15.00
2018-05-13T03:50:07.785Z,15.00
2018-05-13T03:52:35.478Z,15.00
2018-05-13T03:55:03.959Z,15.00
2018-05-13T03:57:32.387Z,15.00
2018-05-13T04:00:00.100Z,15.00
2018-05-13T04:02:28.539Z,15.10
2018-05-13T04:04:56.246Z,15.00
2018-05-13T04:07:25.481Z,15.00
2018-05-13T04:10:06.057Z,15.10
2018-05-13T04:12:45.615Z,15.10
2018-05-13T04:15:21.306Z,15.10
2018-05-13T04:17:49.745Z,15.10
2018-05-13T04:20:17.450Z,15.10
2018-05-13T04:22:45.927Z,15.20
2018-05-13T04:25:14.353Z,15.30
2018-05-13T04:27:42.061Z,15.30
2018-05-13T04:30:10.495Z,15.40
2018-05-13T04:32:38.207Z,15.40
2018-05-13T04:35:06.642Z,15.60
2018-05-13T04:37:34.342Z,15.60
2018-05-13T04:40:02.780Z,15.80
2018-05-13T04:42:30.487Z,15.80
2018-05-13T04:44:58.143Z,15.90
2018-05-13T04:47:26.827Z,16.10
2018-05-13T04:49:55.486Z,16.10
2018-05-13T04:52:23.141Z,16.20
2018-05-13T04:54:50.854Z,16.20
2018-05-13T04:57:19.282Z,16.40
2018-05-13T04:59:46.982Z,16.40
2018-05-13T05:02:15.419Z,16.50
2018-05-13T05:04:43.128Z,16.50
2018-05-13T05:07:11.559Z,16.70
2018-05-13T05:09:39.277Z,16.70
2018-05-13T05:12:06.986Z,16.70
2018-05-13T05:14:34.676Z,16.80
2018-05-13T05:17:02.383Z,17.00
2018-05-13T05:19:30.090Z,17.10
2018-05-13T05:21:57.749Z,17.20
2018-05-13T05:24:26.177Z,17.30
2018-05-13T05:26:54.853Z,17.50
2018-05-13T05:29:23.288Z,17.60
2018-05-13T05:31:50.991Z,17.60
2018-05-13T05:34:19.435Z,17.90
2018-05-13T05:36:47.141Z,17.80
2018-05-13T05:39:15.572Z,18.10
2018-05-13T05:41:43.277Z,18.00
2018-05-13T05:44:11.702Z,18.30
2018-05-13T05:46:39.403Z,18.20
2018-05-13T05:49:07.067Z,18.30
2018-05-13T05:51:34.777Z,18.50
2018-05-13T05:54:02.500Z,18.50
2018-05-13T05:56:30.171Z,18.60
2018-05-13T05:58:58.910Z,18.70
2018-05-13T06:01:27.403Z,18.90
2018-05-13T06:03:55.139Z,18.90
2018-05-13T06:06:22.857Z,19.00
2018-05-13T06:08:50.556Z,19.00
2018-05-13T06:11:18.270Z,19.10
2018-05-13T06:13:46.019Z,19.20
2018-05-13T06:16:13.688Z,19.30
2018-05-13T06:18:41.395Z,19.40
2018-05-13T06:21:09.076Z,19.50
2018-05-13T06:23:36.803Z,19.60
2018-05-13T06:26:05.297Z,19.80
2018-05-13T06:28:33.828Z,19.90
2018-05-13T06:31:01.997Z,19.90
2018-05-13T06:33:30.477Z,20.00
2018-05-13T06:35:58.131Z,20.00
2018-05-13T06:38:27.444Z,20.10
2018-05-13T06:40:55.191Z,20.20
2018-05-13T06:43:22.868Z,20.20
2018-05-13T06:45:50.580Z,20.30
2018-05-13T06:48:19.028Z,20.40
2018-05-13T06:50:46.743Z,20.30
2018-05-13T06:53:14.441Z,20.50
2018-05-13T06:55:42.161Z,20.60
2018-05-13T06:58:09.901Z,20.60
2018-05-13T07:00:38.342Z,20.80
2018-05-13T07:03:06.050Z,20.80
2018-05-13T07:05:34.487Z,21.00
2018-05-13T07:08:02.165Z,20.90
2018-05-13T07:10:29.961Z,21.10
2018-05-13T07:12:57.579Z,21.10
2018-05-13T07:15:25.241Z,21.30
2018-05-13T07:17:52.965Z,21.40
2018-05-13T07:20:20.636Z,21.50
2018-05-13T07:22:48.360Z,21.60
2018-05-13T07:25:16.824Z,22.00
2018-05-13T07:27:44.532Z,21.90
2018-05-13T07:30:12.236Z,22.10
2018-05-13T07:32:39.999Z,22.20
2018-05-13T07:35:07.707Z,22.30
2018-05-13T07:37:36.201Z,22.60
2018-05-13T07:40:03.887Z,22.50
2018-05-13T07:42:31.591Z,22.70
2018-05-13T07:44:59.246Z,22.80
2018-05-13T07:47:26.967Z,22.90
2018-05-13T07:49:54.755Z,22.90
2018-05-13T07:52:22.428Z,23.10
2018-05-13T07:54:50.084Z,23.20
2018-05-13T07:57:17.797Z,23.30
2018-05-13T07:59:45.472Z,23.40
2018-05-13T08:02:13.187Z,23.60
2018-05-13T08:04:40.875Z,23.80
2018-05-13T08:07:08.581Z,23.90
2018-05-13T08:09:36.247Z,24.00
2018-05-13T08:12:03.960Z,24.10
2018-05-13T08:14:32.399Z,24.30
2018-05-13T08:17:00.103Z,24.30
2018-05-13T08:19:28.528Z,24.50
2018-05-13T08:21:56.290Z,24.50
2018-05-13T08:24:24.783Z,24.70
2018-05-13T08:26:52.666Z,24.80
2018-05-13T08:29:20.371Z,24.90
2018-05-13T08:31:48.058Z,25.00
2018-05-13T08:34:15.796Z,25.10
2018-05-13T08:36:43.485Z,25.30
2018-05-13T08:39:11.190Z,25.50
2018-05-13T08:41:38.856Z,25.80
2018-05-13T08:44:07.289Z,26.30
2018-05-13T08:46:35.010Z,26.20
2018-05-13T08:49:03.436Z,26.70
2018-05-13T08:51:31.154Z,26.70
2018-05-13T08:53:59.673Z,27.20
2018-05-13T08:56:28.097Z,27.50
2018-05-13T08:58:55.760Z,27.50
2018-05-13T09:01:23.468Z,27.60
2018-05-13T09:03:51.132Z,27.60
2018-05-13T09:06:18.857Z,27.70
2018-05-13T09:08:47.288Z,28.10
2018-05-13T09:11:14.999Z,28.10
2018-05-13T09:13:43.432Z,28.20
2018-05-13T09:16:11.134Z,28.20
2018-05-13T09:18:39.555Z,28.10
2018-05-13T09:21:07.276Z,28.10
2018-05-13T09:23:35.710Z,27.70
2018-05-13T09:26:03.408Z,27.70
2018-05-13T09:28:31.115Z,27.40
2018-05-13T09:30:58.775Z,27.10
2018-05-13T09:33:26.486Z,26.80
2018-05-13T09:35:54.164Z,26.70
2018-05-13T09:38:21.883Z,26.50
2018-05-13T09:40:49.536Z,26.40
2018-05-13T09:43:17.303Z,26.30
2018-05-13T09:45:44.979Z,26.10
2018-05-13T09:48:12.681Z,26.00
2018-05-13T09:50:41.522Z,25.90
2018-05-13T09:53:09.326Z,25.90
2018-05-13T09:55:37.104Z,25.90
2018-05-13T09:58:05.588Z,25.70
2018-05-13T10:00:34.064Z,25.60
2018-05-13T10:03:02.493Z,25.60
2018-05-13T10:05:30.982Z,25.60
2018-05-13T10:07:59.472Z,25.60
2018-05-13T10:10:27.175Z,25.50
2018-05-13T10:12:55.595Z,25.50
2018-05-13T10:15:23.308Z,25.50
2018-05-13T10:17:51.790Z,25.50
2018-05-13T10:20:20.289Z,25.50
2018-05-13T10:22:47.976Z,25.40
2018-05-13T10:25:15.683Z,25.50
2018-05-13T10:27:43.388Z,25.50
2018-05-13T10:30:11.065Z,25.50
2018-05-13T10:32:38.777Z,25.50
2018-05-13T10:35:06.441Z,25.50
2018-05-13T10:37:34.159Z,25.50
2018-05-13T10:40:01.816Z,25.40
2018-05-13T10:42:29.578Z,25.50
2018-05-13T10:44:57.220Z,25.50
2018-05-13T10:47:24.971Z,25.50
2018-05-13T10:49:53.447Z,25.40
2018-05-13T10:52:21.882Z,25.30
2018-05-13T10:54:49.577Z,25.30
2018-05-13T10:57:18.319Z,25.20
2018-05-13T10:59:46.052Z,25.20
2018-05-13T11:02:13.713Z,25.30
2018-05-13T11:04:41.560Z,25.20
2018-05-13T11:07:09.235Z,25.20
2018-05-13T11:09:37.704Z,25.30
2018-05-13T11:12:06.229Z,25.20
2018-05-13T11:14:33.899Z,25.30
2018-05-13T11:17:01.604Z,25.30
2018-05-13T11:19:29.264Z,25.30
2018-05-13T11:21:56.995Z,25.30
2018-05-13T11:24:24.712Z,25.40
2018-05-13T11:26:53.256Z,25.40
2018-05-13T11:29:20.948Z,25.30
2018-05-13T11:31:49.439Z,25.40
2018-05-13T11:34:17.142Z,25.40
2018-05-13T11:36:45.616Z,25.50
2018-05-13T11:39:13.415Z,25.40
2018-05-13T11:41:41.089Z,25.40
2018-05-13T11:44:09.582Z,25.50
2018-05-13T11:46:38.030Z,25.50
2018-05-13T11:49:05.793Z,25.40
2018-05-13T11:51:33.475Z,25.50
2018-05-13T11:54:01.948Z,25.50
2018-05-13T11:56:29.732Z,25.50
2018-05-13T11:58:57.419Z,25.50
2018-05-13T12:01:26.123Z,25.50
2018-05-13T12:03:53.831Z,25.60
2018-05-13T12:06:22.261Z,25.60
2018-05-13T12:08:49.980Z,25.50
2018-05-13T12:11:18.458Z,25.60
2018-05-13T12:13:46.888Z,25.50
2018-05-13T12:16:14.602Z,25.50
2018-05-13T12:18:43.038Z,25.60
2018-05-13T12:21:10.910Z,25.60
2018-05-13T12:23:39.394Z,25.80
2018-05-13T12:26:07.813Z,25.80
2018-05-13T12:28:36.287Z,25.80
2018-05-13T12:31:04.768Z,25.80
2018-05-13T12:33:33.214Z,25.80
2018-05-13T12:36:00.924Z,25.80
2018-05-13T12:38:29.503Z,25.90
2018-05-13T12:40:57.919Z,25.90
2018-05-13T12:43:26.826Z,25.90
2018-05-13T12:45:55.609Z,25.90
2018-05-13T12:48:23.270Z,25.90
2018-05-13T12:50:50.972Z,26.00
2018-05-13T12:53:19.406Z,26.00
2018-05-13T12:55:47.126Z,26.00
2018-05-13T12:58:15.579Z,26.10
2018-05-13T13:00:43.284Z,26.10
2018-05-13T13:03:11.028Z,26.20
2018-05-13T13:05:39.499Z,26.30
2018-05-13T13:08:07.173Z,26.30
2018-05-13T13:10:35.661Z,26.30
2018-05-13T13:13:04.143Z,26.30
2018-05-13T13:15:31.811Z,26.30
2018-05-13T13:17:59.527Z,26.30
2018-05-13T13:20:27.193Z,26.40
2018-05-13T13:22:56.091Z,26.50
2018-05-13T13:25:23.763Z,26.50
2018-05-13T13:27:52.228Z,26.60
2018-05-13T13:30:19.888Z,26.50
2018-05-13T13:32:48.383Z,26.70
2018-05-13T13:35:16.051Z,26.60
2018-05-13T13:37:44.532Z,26.70
2018-05-13T13:40:12.987Z,26.70
2018-05-13T13:42:40.684Z,26.70
2018-05-13T13:45:09.113Z,26.70
2018-05-13T13:47:37.580Z,26.70
2018-05-13T13:50:05.257Z,26.70
2018-05-13T13:52:32.963Z,26.70
2018-05-13T13:55:01.456Z,26.70
2018-05-13T13:57:29.872Z,26.70
2018-05-13T13:59:57.583Z,26.70
2018-05-13T14:02:27.255Z,26.80
2018-05-13T14:04:56.249Z,26.70
2018-05-13T14:07:23.924Z,26.70
2018-05-13T14:09:52.532Z,26.70
2018-05-13T14:12:20.972Z,26.70
2018-05-13T14:14:49.449Z,26.70
2018-05-13T14:17:17.105Z,26.70
2018-05-13T14:19:44.826Z,26.80
2018-05-13T14:22:13.263Z,26.80
2018-05-13T14:24:41.114Z,26.80
2018-05-13T14:27:08.783Z,26.80
2018-05-13T14:29:36.478Z,26.80
2018-05-13T14:32:04.476Z,26.80
2018-05-13T14:34:32.235Z,26.80
2018-05-13T14:36:59.945Z,26.80
2018-05-13T14:39:27.659Z,26.80
2018-05-13T14:41:57.471Z,26.80
2018-05-13T14:44:26.402Z,26.80
2018-05-13T14:46:54.813Z,26.80
2018-05-13T14:49:22.630Z,26.80
2018-05-13T14:51:50.332Z,26.80
2018-05-13T14:54:18.020Z,26.70
2018-05-13T14:56:46.519Z,26.80
2018-05-13T14:59:14.174Z,26.80
2018-05-13T15:01:42.650Z,26.80
2018-05-13T15:04:11.092Z,26.80
2018-05-13T15:06:38.799Z,26.70
2018-05-13T15:09:06.469Z,26.70
2018-05-13T15:11:34.270Z,26.80
2018-05-13T15:14:01.947Z,26.70
2018-05-13T15:16:29.702Z,26.70
2018-05-13T15:18:57.403Z,26.60
2018-05-13T15:21:27.184Z,26.50
2018-05-13T15:23:55.657Z,26.60
2018-05-13T15:26:23.358Z,26.50
2018-05-13T15:28:51.906Z,26.50
2018-05-13T15:31:19.575Z,26.50
2018-05-13T15:33:47.259Z,26.50
2018-05-13T15:36:15.772Z,26.40
2018-05-13T15:38:43.456Z,26.40
2018-05-13T15:41:11.158Z,26.40
2018-05-13T15:43:38.874Z,26.40
2018-05-13T15:46:06.663Z,26.30
2018-05-13T15:48:34.313Z,26.20
2018-05-13T15:51:02.021Z,26.30
2018-05-13T15:53:30.500Z,26.20
2018-05-13T15:55:58.936Z,26.10
2018-05-13T15:58:26.634Z,26.00
2018-05-13T16:00:56.199Z,25.90
2018-05-13T16:03:23.898Z,26.00
2018-05-13T16:05:51.619Z,25.90
2018-05-13T16:08:19.332Z,25.90
2018-05-13T16:10:47.805Z,25.80
2018-05-13T16:13:15.485Z,25.80
2018-05-13T16:15:43.961Z,25.70
2018-05-13T16:18:12.395Z,25.60
2018-05-13T16:20:40.118Z,25.60
2018-05-13T16:23:07.776Z,25.60
2018-05-13T16:25:35.505Z,25.60
2018-05-13T16:28:03.200Z,25.60
2018-05-13T16:30:31.656Z,25.60
2018-05-13T16:32:59.319Z,25.50
2018-05-13T16:35:27.037Z,25.50
2018-05-13T16:37:55.829Z,25.50
2018-05-13T16:40:23.530Z,25.50
2018-05-13T16:42:51.241Z,25.40
2018-05-13T16:45:18.947Z,25.40
2018-05-13T16:47:46.631Z,25.30
2018-05-13T16:50:15.115Z,25.20
2018-05-13T16:52:43.539Z,25.20
2018-05-13T16:55:11.251Z,25.20
2018-05-13T16:57:39.680Z,25.10
2018-05-13T17:00:07.381Z,25.10
2018-05-13T17:02:35.099Z,25.00
2018-05-13T17:05:02.812Z,24.90
2018-05-13T17:07:30.518Z,24.80
2018-05-13T17:09:58.296Z,24.60
2018-05-13T17:12:26.603Z,24.50
2018-05-13T17:14:54.765Z,24.40
2018-05-13T17:17:22.482Z,24.40
2018-05-13T17:19:50.201Z,24.30
2018-05-13T17:22:17.884Z,24.20
2018-05-13T17:24:46.351Z,24.10
2018-05-13T17:27:14.029Z,24.00
2018-05-13T17:29:43.289Z,24.00
2018-05-13T17:32:11.000Z,24.00
2018-05-13T17:34:39.434Z,23.90
2018-05-13T17:37:07.171Z,23.90
2018-05-13T17:39:34.862Z,23.90
2018-05-13T17:42:03.210Z,23.80
2018-05-13T17:44:31.853Z,23.80
2018-05-13T17:46:59.700Z,23.80
2018-05-13T17:49:27.456Z,23.80
2018-05-13T17:51:56.172Z,23.80
2018-05-13T17:54:23.852Z,23.70
2018-05-13T17:56:52.332Z,23.70
2018-05-13T17:59:19.988Z,23.70
2018-05-13T18:01:48.815Z,23.60
2018-05-13T18:04:16.477Z,23.60
2018-05-13T18:06:44.226Z,23.60
2018-05-13T18:09:11.941Z,23.50
2018-05-13T18:11:39.871Z,23.50
2018-05-13T18:14:07.585Z,23.50
2018-05-13T18:16:36.086Z,23.30
2018-05-13T18:19:04.940Z,23.20
2018-05-13T18:21:32.711Z,23.20
2018-05-13T18:24:00.790Z,23.10
2018-05-13T18:26:29.529Z,23.10
2018-05-13T18:28:57.261Z,23.00
2018-05-13T18:31:26.492Z,22.80
2018-05-13T18:33:54.149Z,22.80
2018-05-13T18:36:22.279Z,22.70
2018-05-13T18:38:50.751Z,22.60
2018-05-13T18:41:18.401Z,22.60
2018-05-13T18:43:46.138Z,22.50
2018-05-13T18:46:13.903Z,22.40
2018-05-13T18:48:41.557Z,22.30
2018-05-13T18:51:09.257Z,22.20
2018-05-13T18:53:37.011Z,22.10
2018-05-13T18:56:04.708Z,22.10
2018-05-13T18:58:33.128Z,21.90
2018-05-13T19:01:00.835Z,21.90
2018-05-13T19:03:29.943Z,21.70
2018-05-13T19:05:59.336Z,21.70
2018-05-13T19:08:28.893Z,21.50
2018-05-13T19:10:56.562Z,21.50
2018-05-13T19:13:24.216Z,21.40
2018-05-13T19:15:51.912Z,21.30
2018-05-13T19:18:19.978Z,21.10
2018-05-13T19:20:47.636Z,21.00
2018-05-13T19:23:15.321Z,20.90
2018-05-13T19:25:43.786Z,20.70
2018-05-13T19:28:11.450Z,20.70
2018-05-13T19:30:39.147Z,20.60
2018-05-13T19:33:06.851Z,20.50
2018-05-13T19:35:35.316Z,20.40
2018-05-13T19:38:02.977Z,20.40
2018-05-13T19:40:30.704Z,20.30
2018-05-13T19:42:59.188Z,20.10
2018-05-13T19:45:26.939Z,20.10
2018-05-13T19:47:55.406Z,19.90
2018-05-13T19:50:23.128Z,19.90
2018-05-13T19:52:50.819Z,19.80
2018-05-13T19:55:18.650Z,19.70
2018-05-13T19:57:47.149Z,19.50
2018-05-13T20:00:14.862Z,19.50
2018-05-13T20:02:43.951Z,19.50
2018-05-13T20:05:11.574Z,19.40
2018-05-13T20:07:39.787Z,19.40
2018-05-13T20:10:08.844Z,19.40
2018-05-13T20:12:37.200Z,19.40
2018-05-13T20:15:04.878Z,19.40
2018-05-13T20:17:33.417Z,19.40
2018-05-13T20:20:01.112Z,19.40
2018-05-13T20:22:29.507Z,19.40
2018-05-13T20:24:57.213Z,19.40
2018-05-13T20:27:25.635Z,19.30
2018-05-13T20:29:54.520Z,19.30
2018-05-13T20:32:22.294Z,19.30
2018-05-13T20:34:50.010Z,19.20
2018-05-13T20:37:18.439Z,19.20
2018-05-13T20:39:46.104Z,19.10
2018-05-13T20:42:13.803Z,19.20
2018-05-13T20:44:42.364Z,19.20
2018-05-13T20:47:10.019Z,19.10
2018-05-13T20:49:38.084Z,19.10
2018-05-13T20:52:06.296Z,19.10
2018-05-13T20:54:34.765Z,18.90
2018-05-13T20:57:02.660Z,18.90
2018-05-13T20:59:31.139Z,18.80
2018-05-13T21:02:01.437Z,18.80
2018-05-13T21:04:30.597Z,18.70
2018-05-13T21:06:58.657Z,18.70
2018-05-13T21:09:26.467Z,18.70
2018-05-13T21:11:54.215Z,18.70
2018-05-13T21:14:21.922Z,18.70
2018-05-13T21:16:49.688Z,18.70
2018-05-13T21:19:18.163Z,18.70
2018-05-13T21:21:46.595Z,18.70
2018-05-13T21:24:14.304Z,18.70
2018-05-13T21:26:42.720Z,18.80
2018-05-13T21:29:10.557Z,18.70
2018-05-13T21:31:39.288Z,18.80
2018-05-13T21:34:07.047Z,18.70
2018-05-13T21:36:34.780Z,18.70
2018-05-13T21:39:02.466Z,18.70
2018-05-13T21:41:30.835Z,18.60
2018-05-13T21:43:59.036Z,18.70
2018-05-13T21:46:26.772Z,18.70
2018-05-13T21:48:54.430Z,18.60
2018-05-13T21:51:22.148Z,18.60
2018-05-13T21:53:50.584Z,18.60
2018-05-13T21:56:18.245Z,18.60
2018-05-13T21:58:46.024Z,18.50
2018-05-13T22:01:13.776Z,18.50
2018-05-13T22:03:41.692Z,18.50
2018-05-13T22:06:10.116Z,18.40
2018-05-13T22:08:38.100Z,18.40
2018-05-13T22:11:05.912Z,18.30
2018-05-13T22:13:34.380Z,18.20
2018-05-13T22:16:02.048Z,18.10
2018-05-13T22:18:31.924Z,18.00
2018-05-13T22:21:00.989Z,18.00
2018-05-13T22:23:28.719Z,18.00
2018-05-13T22:25:57.295Z,17.90
2018-05-13T22:28:25.035Z,17.80
2018-05-13T22:30:52.700Z,17.70
2018-05-13T22:33:20.346Z,17.60
2018-05-13T22:35:48.047Z,17.60
2018-05-13T22:38:15.703Z,17.60
2018-05-13T22:40:43.395Z,17.50
2018-05-13T22:43:11.063Z,17.50
2018-05-13T22:45:38.755Z,17.40
2018-05-13T22:48:06.458Z,17.40
2018-05-13T22:50:34.942Z,17.30
2018-05-13T22:53:03.407Z,17.30
2018-05-13T22:55:31.648Z,17.30
2018-05-13T22:58:00.485Z,17.20
2018-05-13T23:00:29.545Z,17.10
2018-05-13T23:02:57.255Z,17.10
2018-05-13T23:05:25.747Z,17.00
2018-05-13T23:07:53.860Z,17.00
2018-05-13T23:10:22.333Z,16.90
2018-05-13T23:15:24.435Z,16.80
2018-05-13T23:17:52.941Z,16.70
2018-05-13T23:20:20.730Z,16.70
2018-05-13T23:22:49.127Z,16.50
2018-05-13T23:25:16.899Z,16.50
2018-05-13T23:27:44.612Z,16.50
2018-05-13T23:30:13.036Z,16.40
2018-05-13T23:32:40.755Z,16.30
2018-05-13T23:35:09.220Z,16.30
2018-05-13T23:37:36.891Z,16.30
2018-05-13T23:40:04.591Z,16.20
2018-05-13T23:42:32.524Z,16.20
2018-05-13T23:45:02.078Z,16.10
2018-05-13T23:47:30.823Z,16.10
2018-05-13T23:49:59.813Z,16.10
2018-05-13T23:52:28.417Z,16.10
2018-05-13T23:54:56.071Z,16.10
2018-05-13T23:57:23.777Z,16.00
2018-05-13T23:59:51.435Z,16.00
